Time;durP1;ratioP1;P1;durP2;ratioP2;P2;SDS_P1;SDS_P2;PMS_P1;PMS_P2;Temp;Humidity;BMP_temperature;BMP_pressure;BME280_temperature;BME280_humidity;BME280_pressure;Samples;Min_cycle;Max_cycle;Signal;HPM_P1;HPM_P2
2023/03/08 00:01:51;;;;;;;1.48;1.20;;;;;;;1.19;87.30;98915.84;4961862;28;20033;-79
2023/03/08 00:04:17;;;;;;;3.75;2.72;;;;;;;1.29;86.58;98908.59;4961679;28;20035;-79
2023/03/08 00:06:43;;;;;;;3.67;2.50;;;;;;;1.34;85.54;98913.41;4961787;28;20370;-83
2023/03/08 00:09:08;;;;;;;3.42;2.35;;;;;;;1.37;84.45;98913.09;4977504;28;20575;-82
2023/03/08 00:11:37;;;;;;;3.55;2.00;;;;;;;1.39;83.50;98903.19;4961603;28;20034;-83
2023/03/08 00:14:03;;;;;;;2.88;1.65;;;;;;;1.27;84.10;98902.63;4994312;28;20030;-82
2023/03/08 00:16:28;;;;;;;2.60;1.98;;;;;;;1.36;82.17;98892.91;4977571;28;20393;-80
2023/03/08 00:18:56;;;;;;;3.20;2.17;;;;;;;1.35;82.38;98892.09;4977333;28;20161;-80
2023/03/08 00:21:22;;;;;;;1.55;1.40;;;;;;;1.33;82.85;98891.41;4977002;28;20496;-82
2023/03/08 00:23:51;;;;;;;3.10;1.90;;;;;;;1.33;82.95;98886.13;4977421;28;20040;-85
2023/03/08 00:26:16;;;;;;;2.75;1.85;;;;;;;1.29;83.98;98890.06;4961671;28;20026;-79
2023/03/08 00:28:44;;;;;;;2.58;1.75;;;;;;;1.29;84.02;98888.25;4961251;28;20428;-82
2023/03/08 00:31:11;;;;;;;4.28;2.33;;;;;;;1.24;84.71;98879.13;4977822;28;20083;-78
2023/03/08 00:33:40;;;;;;;2.15;1.25;;;;;;;1.23;85.57;98880.97;4961309;28;20049;-81
2023/03/08 00:36:14;;;;;;;2.85;1.52;;;;;;;1.21;86.14;98882.94;4993179;28;20428;-79
2023/03/08 00:38:41;;;;;;;5.60;3.15;;;;;;;1.18;86.01;98875.31;4977509;28;20037;-79
2023/03/08 00:41:06;;;;;;;4.22;2.15;;;;;;;1.13;85.31;98874.97;4977112;28;20050;-81
2023/03/08 00:43:32;;;;;;;1.73;1.52;;;;;;;1.03;85.55;98861.91;4960863;28;20088;-81
2023/03/08 00:45:58;;;;;;;5.07;1.45;;;;;;;1.01;85.70;98868.34;4961091;28;20038;-79
2023/03/08 00:48:24;;;;;;;3.22;2.72;;;;;;;0.98;86.04;98872.13;4976763;28;20062;-82
2023/03/08 00:50:50;;;;;;;2.97;1.80;;;;;;;0.88;86.91;98864.31;4960730;28;20151;-84
2023/03/08 00:53:16;;;;;;;3.58;1.80;;;;;;;0.81;87.57;98860.66;4960796;28;20100;-85
2023/03/08 00:55:57;;;;;;;3.13;2.20;;;;;;;0.78;88.10;98855.69;4993081;28;20085;-80
2023/03/08 00:58:25;;;;;;;2.95;1.65;;;;;;;0.62;88.21;98830.00;4960793;28;20551;-81
2023/03/08 01:00:54;;;;;;;2.47;1.85;;;;;;;0.78;88.18;98847.75;4976441;28;20030;-81
2023/03/08 01:03:21;;;;;;;1.85;1.35;;;;;;;0.80;88.10;98850.25;4944825;28;20041;-85
2023/03/08 01:05:52;;;;;;;2.03;1.52;;;;;;;0.75;88.58;98844.59;4960556;28;20109;-79
2023/03/08 01:08:22;;;;;;;2.58;1.85;;;;;;;0.70;88.86;98837.16;4976845;28;20038;-83
2023/03/08 01:10:49;;;;;;;6.03;2.05;;;;;;;0.69;89.40;98839.94;4960655;28;20034;-82
2023/03/08 01:13:17;;;;;;;3.15;1.45;;;;;;;0.66;89.85;98835.78;4960622;28;20030;-83
2023/03/08 01:15:43;;;;;;;2.58;1.77;;;;;;;0.62;90.24;98832.66;4976782;28;20034;-81
2023/03/08 01:18:09;;;;;;;4.28;2.25;;;;;;;0.59;90.04;98824.22;4976527;28;20049;-81
2023/03/08 01:20:37;;;;;;;4.25;2.13;;;;;;;0.57;90.32;98823.53;4960765;28;20034;-82
2023/03/08 01:23:03;;;;;;;1.60;1.30;;;;;;;0.53;90.79;98812.47;4992658;28;20034;-81
2023/03/08 01:25:31;;;;;;;2.58;2.08;;;;;;;0.42;91.05;98803.00;4960651;28;20104;-78
2023/03/08 01:27:57;;;;;;;4.60;1.80;;;;;;;0.47;91.69;98806.97;4960510;28;20041;-84
2023/03/08 01:30:22;;;;;;;2.00;1.67;;;;;;;0.45;91.32;98799.22;4960702;28;20049;-78
2023/03/08 01:32:54;;;;;;;2.20;1.50;;;;;;;0.39;92.05;98798.00;4960527;28;20479;-80
2023/03/08 01:35:19;;;;;;;2.97;1.92;;;;;;;0.39;91.74;98786.59;4996754;28;20039;-80
2023/03/08 01:37:45;;;;;;;2.78;1.65;;;;;;;0.36;91.79;98779.00;4964503;28;20030;-79
2023/03/08 01:40:18;;;;;;;3.10;1.90;;;;;;;0.29;91.84;98762.09;4964366;28;20449;-83
2023/03/08 01:42:43;;;;;;;3.30;1.80;;;;;;;0.39;91.20;98763.63;4964882;28;20065;-82
2023/03/08 01:45:49;;;;;;;3.85;2.35;;;;;;;0.47;90.46;98764.66;4981145;28;20686;-80
2023/03/08 01:48:19;;;;;;;1.48;1.38;;;;;;;0.45;90.38;98762.19;4996795;28;20038;-79
2023/03/08 01:50:45;;;;;;;4.18;2.33;;;;;;;0.48;89.82;98753.09;4980421;28;20042;-85
2023/03/08 01:53:12;;;;;;;2.33;1.60;;;;;;;0.42;90.00;98752.75;4963764;28;20054;-85
2023/03/08 01:55:38;;;;;;;1.95;1.42;;;;;;;0.46;88.95;98747.97;4964111;28;20056;-84
2023/03/08 01:58:04;;;;;;;3.70;2.10;;;;;;;0.58;87.81;98743.19;4980076;28;20053;-78
2023/03/08 02:00:30;;;;;;;2.90;2.03;;;;;;;0.65;87.25;98749.50;4964033;28;20027;-77
2023/03/08 02:03:04;;;;;;;1.95;1.58;;;;;;;0.60;87.36;98728.00;4963975;28;20034;-82
2023/03/08 02:05:31;;;;;;;4.72;1.70;;;;;;;0.55;87.72;98723.19;4963795;28;20034;-86
2023/03/08 02:08:02;;;;;;;2.10;1.60;;;;;;;0.70;85.90;98719.94;4979576;28;20508;-81
2023/03/08 02:10:27;;;;;;;3.03;2.30;;;;;;;0.71;85.55;98718.94;4996369;28;20034;-84
2023/03/08 02:12:53;;;;;;;3.10;1.55;;;;;;;0.67;85.26;98702.56;4979548;28;20133;-85
2023/03/08 02:15:20;;;;;;;4.28;2.72;;;;;;;0.76;84.64;98698.94;4964147;28;20522;-77
2023/03/08 02:17:46;;;;;;;1.52;1.25;;;;;;;0.73;83.94;98688.69;4947886;28;20468;-78
2023/03/08 02:20:38;;;;;;;3.83;1.83;;;;;;;0.87;82.76;98684.56;4963844;28;20496;-83
2023/03/08 02:23:19;;;;;;;1.50;1.23;;;;;;;0.91;82.76;98695.66;4963503;28;20555;-81
2023/03/08 02:25:54;;;;;;;2.90;2.15;;;;;;;0.81;82.75;98666.72;4995526;28;20473;-79
2023/03/08 02:28:25;;;;;;;1.90;1.50;;;;;;;0.93;82.65;98667.19;4947722;28;20442;-80
2023/03/08 02:30:51;;;;;;;2.28;1.92;;;;;;;1.12;80.56;98669.53;4979354;28;20030;-79
2023/03/08 02:33:17;;;;;;;2.03;1.70;;;;;;;1.06;81.11;98641.09;4963125;28;20065;-79
2023/03/08 02:35:44;;;;;;;1.38;1.27;;;;;;;1.18;80.67;98654.78;4995915;28;20030;-81
2023/03/08 02:38:14;;;;;;;2.78;2.00;;;;;;;1.06;81.54;98649.84;4995713;28;20040;-83
2023/03/08 02:40:44;;;;;;;2.10;1.35;;;;;;;1.22;80.78;98651.66;4979751;28;20070;-78
2023/03/08 02:43:10;;;;;;;2.55;2.05;;;;;;;1.23;80.71;98650.63;4962713;28;20499;-80
2023/03/08 02:45:36;;;;;;;4.93;2.53;;;;;;;1.21;80.18;98633.28;4963016;28;20125;-84
2023/03/08 02:48:03;;;;;;;3.33;1.83;;;;;;;1.29;79.62;98635.91;4979657;28;20465;-76
2023/03/08 02:50:30;;;;;;;4.30;2.10;;;;;;;1.17;80.17;98627.50;4979768;28;20034;-77
2023/03/08 02:52:58;;;;;;;3.42;2.45;;;;;;;1.20;80.78;98635.09;4963164;28;20034;-79
2023/03/08 02:55:27;;;;;;;2.58;1.60;;;;;;;1.39;78.88;98625.94;4979184;28;20504;-78
2023/03/08 02:57:54;;;;;;;2.65;1.83;;;;;;;1.27;79.74;98619.34;4963941;28;20049;-84
2023/03/08 03:00:20;;;;;;;2.30;1.92;;;;;;;1.36;79.25;98620.19;4963177;28;20054;-84
2023/03/08 03:02:46;;;;;;;3.45;1.45;;;;;;;1.40;78.53;98616.19;4962627;28;20061;-87
2023/03/08 03:05:12;;;;;;;3.67;2.50;;;;;;;1.44;78.68;98620.16;4979076;28;20057;-78
2023/03/08 03:07:39;;;;;;;4.07;2.10;;;;;;;1.48;78.48;98616.16;4978599;28;20496;-78
2023/03/08 03:10:09;;;;;;;2.53;1.65;;;;;;;1.41;78.29;98596.66;4995972;28;20037;-85
2023/03/08 03:12:35;;;;;;;2.33;2.03;;;;;;;1.43;79.29;98605.25;4978584;28;20030;-83
2023/03/08 03:15:04;;;;;;;3.22;2.30;;;;;;;1.48;78.59;98595.81;4963216;28;20042;-84
2023/03/08 03:17:31;;;;;;;2.42;1.67;;;;;;;1.37;79.28;98598.00;4979020;28;20109;-86
2023/03/08 03:20:01;;;;;;;1.30;1.20;;;;;;;1.26;81.28;98593.88;4978868;28;20026;-80
2023/03/08 03:22:32;;;;;;;4.38;2.30;;;;;;;1.28;80.77;98584.78;4962389;28;20077;-87
2023/03/08 03:24:58;;;;;;;3.05;1.80;;;;;;;1.19;81.89;98593.75;4962903;28;20473;-80
2023/03/08 03:27:24;;;;;;;3.00;2.33;;;;;;;1.15;83.17;98592.41;4962592;28;20041;-82
2023/03/08 03:29:50;;;;;;;4.07;2.78;;;;;;;1.10;83.59;98584.16;4962646;28;20038;-84
2023/03/08 03:32:15;;;;;;;3.60;2.40;;;;;;;1.07;83.69;98580.03;4994538;28;20418;-80
2023/03/08 03:34:41;;;;;;;3.78;2.33;;;;;;;1.17;83.66;98579.03;4962778;28;20038;-81
2023/03/08 03:37:07;;;;;;;3.65;2.92;;;;;;;1.19;83.54;98577.88;4962355;28;20058;-78
2023/03/08 03:39:37;;;;;;;4.03;3.28;;;;;;;1.30;83.34;98556.31;4961952;28;20058;-83
2023/03/08 03:42:06;;;;;;;4.85;3.58;;;;;;;1.31;82.60;98573.03;4962372;28;20035;-80
2023/03/08 03:44:32;;;;;;;6.95;3.17;;;;;;;1.22;83.65;98563.47;4994662;28;20113;-84
2023/03/08 03:47:00;;;;;;;6.00;2.95;;;;;;;1.22;83.65;98543.09;4962247;28;20425;-78
2023/03/08 03:49:29;;;;;;;4.05;2.40;;;;;;;1.25;83.38;98555.19;4978770;28;20436;-83
2023/03/08 03:51:58;;;;;;;4.97;3.15;;;;;;;1.22;83.99;98550.22;4978371;28;20038;-79
2023/03/08 03:54:23;;;;;;;5.22;3.60;;;;;;;1.22;83.78;98544.94;4962597;28;20038;-83
2023/03/08 03:56:49;;;;;;;5.70;3.90;;;;;;;1.21;83.41;98549.38;4962218;28;20519;-84
2023/03/08 03:59:18;;;;;;;6.70;4.70;;;;;;;1.30;82.96;98545.72;4962537;28;20035;-79
2023/03/08 04:01:44;;;;;;;5.05;3.58;;;;;;;1.22;82.72;98539.63;4990816;28;20469;-80
2023/03/08 04:04:10;;;;;;;4.53;3.15;;;;;;;1.18;83.66;98555.03;4978066;28;20034;-81
2023/03/08 04:06:36;;;;;;;5.45;3.42;;;;;;;1.20;83.71;98541.63;4995580;28;20041;-81
2023/03/08 04:09:07;;;;;;;6.80;3.60;;;;;;;1.14;83.77;98521.97;4977358;28;20034;-82
2023/03/08 04:11:35;;;;;;;4.90;3.40;;;;;;;1.08;84.94;98541.16;4961584;28;20038;-82
2023/03/08 04:14:01;;;;;;;4.75;3.47;;;;;;;1.06;84.75;98535.22;4946018;28;20037;-78
2023/03/08 04:16:30;;;;;;;5.28;4.13;;;;;;;1.04;85.87;98539.84;4961950;28;20491;-79
2023/03/08 04:19:01;;;;;;;4.63;2.80;;;;;;;1.06;85.81;98522.81;4962068;28;20092;-86
2023/03/08 04:21:32;;;;;;;5.70;4.53;;;;;;;1.20;84.30;98520.44;4993491;28;20117;-78
2023/03/08 04:23:58;;;;;;;6.65;3.67;;;;;;;1.12;84.94;98513.34;4961450;28;20026;-85
2023/03/08 04:26:24;;;;;;;5.25;3.58;;;;;;;1.13;84.45;98516.81;4961588;28;20481;-78
2023/03/08 04:28:50;;;;;;;6.50;3.97;;;;;;;1.07;85.18;98510.41;4977456;28;20034;-78
2023/03/08 04:31:30;;;;;;;13.57;4.43;;;;;;;1.16;84.81;98517.28;4961031;28;20042;-78
2023/03/08 04:33:57;;;;;;;7.93;4.10;;;;;;;1.16;85.42;98508.53;4993347;28;20033;-81
2023/03/08 04:36:22;;;;;;;9.57;3.53;;;;;;;1.06;85.79;98503.47;4993413;28;20022;-85
2023/03/08 04:38:49;;;;;;;4.95;3.38;;;;;;;0.94;86.76;98504.81;4961299;28;20539;-86
2023/03/08 04:41:15;;;;;;;7.47;4.97;;;;;;;1.10;87.07;98515.34;4977176;28;20038;-78
2023/03/08 04:43:49;;;;;;;6.75;3.97;;;;;;;0.69;87.57;98464.34;4993385;28;20108;-81
2023/03/08 04:46:16;;;;;;;4.63;2.85;;;;;;;0.91;89.03;98503.31;4993419;28;20097;-81
2023/03/08 04:48:42;;;;;;;4.28;3.25;;;;;;;0.92;89.04;98509.44;4977615;28;20030;-83
2023/03/08 04:51:08;;;;;;;6.93;3.53;;;;;;;0.84;89.60;98503.16;4961114;28;20030;-78
2023/03/08 04:53:40;;;;;;;6.53;2.92;;;;;;;0.82;89.85;98501.69;4993519;28;20058;-84
2023/03/08 04:56:07;;;;;;;6.18;3.65;;;;;;;0.78;89.65;98474.75;4977629;28;20397;-85
2023/03/08 04:58:33;;;;;;;5.80;3.28;;;;;;;0.88;89.67;98501.84;4960959;28;20038;-84
2023/03/08 05:00:59;;;;;;;3.67;2.25;;;;;;;0.79;90.30;98502.03;4977163;28;20037;-82
2023/03/08 05:03:25;;;;;;;5.60;3.53;;;;;;;0.81;90.79;98503.50;4977073;28;20031;-83
2023/03/08 05:05:53;;;;;;;5.50;3.55;;;;;;;0.89;90.31;98510.59;4962456;28;20469;-79
2023/03/08 05:08:19;;;;;;;3.72;2.83;;;;;;;0.80;90.87;98491.28;4993252;28;20026;-84
2023/03/08 05:10:52;;;;;;;5.13;2.97;;;;;;;0.87;90.96;98505.50;4962281;28;20072;-80
2023/03/08 05:13:18;;;;;;;5.35;4.22;;;;;;;0.85;90.88;98504.84;4979061;28;20030;-81
2023/03/08 05:15:44;;;;;;;7.13;2.80;;;;;;;0.80;91.74;98503.69;4963024;28;20362;-82
2023/03/08 05:18:13;;;;;;;6.90;4.03;;;;;;;0.91;90.54;98495.38;4961937;28;20133;-84
2023/03/08 05:20:40;;;;;;;2.67;2.08;;;;;;;0.81;91.25;98497.41;4961003;28;20042;-84
2023/03/08 05:23:09;;;;;;;5.93;3.45;;;;;;;0.94;90.74;98499.53;4961162;28;20026;-83
2023/03/08 05:25:43;;;;;;;7.22;4.03;;;;;;;0.86;91.17;98497.72;4976694;28;20049;-86
2023/03/08 05:28:09;;;;;;;2.78;2.08;;;;;;;0.82;91.66;98493.75;4992606;28;20125;-80
2023/03/08 05:30:35;;;;;;;10.27;3.90;;;;;;;0.77;92.26;98496.91;4960932;28;20121;-80
2023/03/08 05:33:00;;;;;;;6.25;3.58;;;;;;;0.67;92.16;98488.34;4960866;28;20472;-80
2023/03/08 05:35:26;;;;;;;5.82;3.08;;;;;;;0.64;93.06;98484.22;4960806;28;20038;-84
2023/03/08 05:37:52;;;;;;;5.55;4.18;;;;;;;0.70;93.02;98484.53;4960429;28;20031;-78
2023/03/08 05:40:25;;;;;;;5.95;3.60;;;;;;;0.76;92.24;98483.84;4960612;28;20458;-79
2023/03/08 05:42:54;;;;;;;6.60;3.42;;;;;;;0.84;91.46;98489.13;4976005;28;20042;-82
2023/03/08 05:45:20;;;;;;;3.95;2.97;;;;;;;0.83;91.13;98483.00;4992414;28;20038;-79
2023/03/08 05:47:46;;;;;;;4.65;2.67;;;;;;;0.81;90.98;98468.28;4960249;28;20037;-78
2023/03/08 05:50:11;;;;;;;4.05;2.70;;;;;;;0.81;91.17;98477.06;4960833;28;20038;-80
2023/03/08 05:52:37;;;;;;;4.03;2.40;;;;;;;0.75;91.72;98480.38;4960522;28;20045;-83
2023/03/08 05:55:08;;;;;;;3.63;2.92;;;;;;;0.73;92.43;98473.59;4975649;28;20050;-84
2023/03/08 05:57:35;;;;;;;4.72;3.53;;;;;;;0.72;92.23;98461.38;4977006;28;20034;-81
2023/03/08 06:00:06;;;;;;;3.33;1.80;;;;;;;0.71;92.09;98465.84;4976564;28;20378;-81
2023/03/08 06:02:35;;;;;;;3.80;2.72;;;;;;;0.74;92.05;98478.75;4976933;28;20037;-84
2023/03/08 06:05:00;;;;;;;2.58;1.92;;;;;;;0.65;92.38;98477.09;4960882;28;20034;-77
2023/03/08 06:07:26;;;;;;;3.08;2.50;;;;;;;0.76;91.33;98471.44;4961497;28;20041;-80
2023/03/08 06:09:54;;;;;;;6.80;2.25;;;;;;;0.76;91.48;98474.09;4961656;28;20062;-84
2023/03/08 06:12:19;;;;;;;2.47;2.00;;;;;;;0.64;92.25;98472.81;4961027;28;20133;-84
2023/03/08 06:14:48;;;;;;;4.55;2.60;;;;;;;0.62;92.80;98486.19;4960686;28;20042;-79
2023/03/08 06:17:14;;;;;;;4.18;2.47;;;;;;;0.60;93.15;98485.53;4954191;28;20081;-78
2023/03/08 06:19:40;;;;;;;4.25;2.88;;;;;;;0.52;93.79;98487.38;4977759;28;20038;-85
2023/03/08 06:22:06;;;;;;;2.75;2.13;;;;;;;0.53;94.16;98496.94;4979990;28;20388;-77
2023/03/08 06:24:34;;;;;;;4.85;2.83;;;;;;;0.50;94.39;98486.69;4964116;28;20057;-84
2023/03/08 06:27:00;;;;;;;3.80;2.30;;;;;;;0.53;93.84;98486.34;4964445;28;20514;-80
2023/03/08 06:29:25;;;;;;;3.92;2.28;;;;;;;0.65;93.69;98495.59;4964080;28;20042;-82
2023/03/08 06:31:51;;;;;;;4.68;2.70;;;;;;;0.67;92.61;98492.81;4979724;28;20085;-84
2023/03/08 06:34:22;;;;;;;6.97;2.38;;;;;;;0.65;92.75;98499.06;4963749;28;20433;-81
2023/03/08 06:36:50;;;;;;;3.13;2.47;;;;;;;0.50;93.16;98476.13;4980032;28;20053;-82
2023/03/08 06:39:18;;;;;;;1.63;1.52;;;;;;;0.61;94.02;98497.78;4963873;28;20037;-82
2023/03/08 06:41:44;;;;;;;4.30;2.75;;;;;;;0.57;93.99;98501.72;4963436;28;20052;-82
2023/03/08 06:44:10;;;;;;;5.00;2.90;;;;;;;0.53;94.67;98492.50;4963612;28;20536;-77
2023/03/08 06:46:36;;;;;;;3.53;2.28;;;;;;;0.59;94.51;98488.34;4963424;28;20034;-78
2023/03/08 06:49:03;;;;;;;3.60;2.53;;;;;;;0.53;94.73;98486.34;4963528;28;20068;-83
2023/03/08 06:51:29;;;;;;;4.68;2.58;;;;;;;0.41;95.07;98489.34;4979784;28;20064;-79
2023/03/08 06:53:54;;;;;;;2.83;1.90;;;;;;;0.48;95.81;98483.38;4962891;28;20389;-84
2023/03/08 06:56:20;;;;;;;3.45;2.45;;;;;;;0.56;95.34;98486.06;4979625;28;20045;-83
2023/03/08 06:58:49;;;;;;;3.67;1.98;;;;;;;0.61;94.81;98491.66;4979535;28;20037;-79
2023/03/08 07:01:14;;;;;;;3.85;2.70;;;;;;;0.50;95.16;98476.13;4963367;28;20038;-78
2023/03/08 07:03:41;;;;;;;2.53;1.92;;;;;;;0.25;95.46;98444.44;4963495;28;20492;-84
2023/03/08 07:06:08;;;;;;;2.92;2.55;;;;;;;0.67;94.98;98493.63;4962584;28;20034;-78
2023/03/08 07:08:35;;;;;;;4.10;2.63;;;;;;;0.71;94.78;98492.28;4995419;28;20030;-78
2023/03/08 07:11:00;;;;;;;2.08;1.50;;;;;;;0.59;95.27;98478.59;4996649;28;20113;-82
2023/03/08 07:13:27;;;;;;;4.35;3.92;;;;;;;0.63;96.05;98487.81;4995100;28;20125;-82
2023/03/08 07:15:53;;;;;;;2.97;2.15;;;;;;;0.50;95.24;98463.72;4978667;28;20033;-84
2023/03/08 07:18:19;;;;;;;7.28;3.63;;;;;;;0.71;95.12;98487.00;4963035;28;20385;-86
2023/03/08 07:20:45;;;;;;;3.25;2.63;;;;;;;0.73;94.47;98482.38;4963275;28;20172;-78
2023/03/08 07:23:10;;;;;;;8.52;2.03;;;;;;;0.74;95.03;98496.41;4963001;28;20072;-79
2023/03/08 07:25:39;;;;;;;3.92;2.05;;;;;;;0.74;94.83;98489.31;4962755;28;20034;-86
2023/03/08 07:28:05;;;;;;;2.60;2.00;;;;;;;0.79;94.33;98484.31;4978586;28;20034;-81
2023/03/08 07:30:31;;;;;;;1.95;1.52;;;;;;;0.82;94.12;98480.50;4978019;28;20034;-78
2023/03/08 07:32:57;;;;;;;2.72;1.90;;;;;;;0.81;94.33;98484.16;4962196;28;20033;-85
2023/03/08 07:35:22;;;;;;;3.90;1.88;;;;;;;0.84;93.91;98476.72;4962736;28;20124;-85
2023/03/08 07:37:48;;;;;;;2.50;1.67;;;;;;;0.87;93.62;98484.34;4962748;28;20050;-82
2023/03/08 07:40:15;;;;;;;2.90;1.73;;;;;;;0.90;93.47;98480.53;4962033;28;20366;-79
2023/03/08 07:42:44;;;;;;;4.82;3.08;;;;;;;0.84;93.43;98478.53;4994227;28;20042;-79
2023/03/08 07:45:14;;;;;;;6.97;2.97;;;;;;;0.98;93.02;98482.28;4978603;28;20066;-82
2023/03/08 07:47:39;;;;;;;4.35;2.45;;;;;;;0.97;93.38;98473.53;4994306;28;20473;-83
2023/03/08 07:50:12;;;;;;;5.13;2.13;;;;;;;1.00;93.36;98472.38;4978261;28;20121;-83
2023/03/08 07:52:41;;;;;;;2.88;1.80;;;;;;;0.93;93.81;98460.81;4979233;28;20096;-86
2023/03/08 07:55:08;;;;;;;3.55;1.58;;;;;;;1.09;92.24;98468.72;4994541;28;20057;-80
2023/03/08 07:57:33;;;;;;;2.55;1.55;;;;;;;1.09;92.63;98456.28;4962043;28;20038;-78
2023/03/08 07:59:59;;;;;;;2.90;1.85;;;;;;;1.21;91.89;98463.84;4962259;28;20433;-85
2023/03/08 08:02:25;;;;;;;3.45;1.55;;;;;;;1.25;91.44;98454.59;4961860;28;20069;-87
2023/03/08 08:04:51;;;;;;;4.82;2.05;;;;;;;1.26;91.70;98454.41;4994438;28;20030;-84
2023/03/08 08:07:16;;;;;;;3.75;1.48;;;;;;;1.36;91.04;98456.03;4962119;28;20077;-80
2023/03/08 08:09:45;;;;;;;4.05;2.38;;;;;;;1.53;89.22;98446.97;4961920;28;20042;-80
2023/03/08 08:12:11;;;;;;;2.28;1.92;;;;;;;1.61;89.41;98448.75;4994845;28;20058;-78
2023/03/08 08:14:37;;;;;;;2.85;1.55;;;;;;;1.70;87.91;98439.75;4961741;28;20042;-84
2023/03/08 08:17:03;;;;;;;3.40;1.83;;;;;;;1.88;87.92;98452.69;4961648;28;20100;-79
2023/03/08 08:19:30;;;;;;;4.25;2.90;;;;;;;2.09;85.82;98452.91;4993687;28;20060;-88
2023/03/08 08:21:56;;;;;;;4.60;1.92;;;;;;;2.29;85.20;98452.38;4961873;28;20035;-78
2023/03/08 08:24:22;;;;;;;2.78;1.70;;;;;;;2.52;84.16;98457.66;4962127;28;20088;-83
2023/03/08 08:26:48;;;;;;;3.72;1.73;;;;;;;2.92;80.24;98455.56;4978250;28;20034;-85
2023/03/08 08:29:13;;;;;;;12.77;6.75;;;;;;;3.22;80.63;98456.38;4964421;28;20041;-78
2023/03/08 08:31:39;;;;;;;2.78;2.05;;;;;;;3.49;78.19;98439.75;4977753;28;20112;-83
2023/03/08 08:34:05;;;;;;;5.75;2.28;;;;;;;3.88;74.83;98453.66;4993557;28;20458;-81
2023/03/08 08:36:30;;;;;;;1.80;1.38;;;;;;;4.07;73.85;98453.00;4977104;28;20585;-80
2023/03/08 08:38:56;;;;;;;8.85;2.38;;;;;;;4.29;71.59;98453.00;4961452;28;20493;-77
2023/03/08 08:41:23;;;;;;;2.90;1.75;;;;;;;4.43;72.45;98446.78;4960959;28;20465;-84
2023/03/08 08:43:49;;;;;;;4.00;1.40;;;;;;;4.52;71.08;98448.25;4960770;28;20038;-79
2023/03/08 08:46:15;;;;;;;3.35;1.67;;;;;;;4.53;69.92;98446.44;4993307;28;20046;-79
2023/03/08 08:48:41;;;;;;;1.60;1.48;;;;;;;4.56;69.85;98451.38;4976575;28;20034;-81
2023/03/08 08:51:08;;;;;;;2.35;1.42;;;;;;;4.59;70.16;98450.97;4977214;28;20030;-81
2023/03/08 08:53:35;;;;;;;3.35;1.67;;;;;;;4.55;70.88;98455.03;4961199;28;20042;-84
2023/03/08 08:56:15;;;;;;;3.75;1.77;;;;;;;4.55;69.84;98447.03;4993255;28;20045;-77
2023/03/08 08:58:41;;;;;;;3.22;1.17;;;;;;;4.50;69.55;98452.97;4961388;28;20135;-77
2023/03/08 09:01:15;;;;;;;4.15;1.40;;;;;;;4.49;70.04;98440.66;4993089;28;20100;-82
2023/03/08 09:03:41;;;;;;;2.70;1.42;;;;;;;4.57;70.50;98447.69;4981819;28;20113;-81
2023/03/08 09:06:06;;;;;;;3.90;1.25;;;;;;;4.82;67.87;98451.56;4977497;28;20510;-79
2023/03/08 09:08:32;;;;;;;2.33;1.50;;;;;;;4.88;68.22;98438.47;4961908;28;20030;-84
2023/03/08 09:11:03;;;;;;;1.67;1.10;;;;;;;4.90;68.13;98449.75;4961156;28;20125;-77
2023/03/08 09:13:29;;;;;;;1.52;1.00;;;;;;;4.97;67.33;98461.25;4960590;28;20039;-80
2023/03/08 09:15:54;;;;;;;2.13;1.13;;;;;;;4.92;67.40;98467.19;4944484;28;20034;-79
2023/03/08 09:18:20;;;;;;;3.17;1.83;;;;;;;4.95;66.64;98460.63;4992668;28;20044;-79
2023/03/08 09:20:46;;;;;;;1.15;1.05;;;;;;;4.90;67.78;98468.41;4960409;28;20018;-77
2023/03/08 09:23:11;;;;;;;2.42;1.40;;;;;;;4.87;68.75;98463.44;4992126;28;20428;-80
2023/03/08 09:25:37;;;;;;;2.67;1.25;;;;;;;4.94;67.98;98464.31;4993591;28;20096;-78
2023/03/08 09:28:03;;;;;;;3.28;2.20;;;;;;;5.11;64.30;98460.31;4992386;28;20465;-80
2023/03/08 09:30:31;;;;;;;7.50;1.88;;;;;;;5.07;66.70;98469.72;4977002;28;20587;-79
2023/03/08 09:32:58;;;;;;;4.13;1.60;;;;;;;5.18;67.84;98471.00;4992692;28;20038;-80
2023/03/08 09:35:24;;;;;;;3.75;1.85;;;;;;;5.38;65.56;98458.59;4976744;28;20027;-79
2023/03/08 09:37:50;;;;;;;2.08;1.73;;;;;;;5.42;64.97;98459.81;4976050;28;20039;-77
2023/03/08 09:40:25;;;;;;;2.40;1.42;;;;;;;5.32;65.85;98454.06;4976518;28;20377;-77
2023/03/08 09:42:52;;;;;;;3.30;1.40;;;;;;;5.38;64.48;98453.28;4992479;28;20473;-78
2023/03/08 09:45:24;;;;;;;1.10;1.00;;;;;;;5.45;65.89;98453.28;4992833;28;20049;-76
2023/03/08 09:48:10;;;;;;;2.65;1.40;;;;;;;5.64;63.00;98449.88;4993979;28;20081;-79
2023/03/08 09:50:38;;;;;;;3.15;1.58;;;;;;;5.55;62.24;98451.06;4992510;28;20151;-80
2023/03/08 09:53:17;;;;;;;1.40;1.10;;;;;;;5.50;62.83;98442.84;4977296;28;20050;-78
2023/03/08 09:55:47;;;;;;;4.85;3.33;;;;;;;5.39;63.38;98441.56;4995651;28;20069;-77
2023/03/08 09:58:31;;;;;;;3.92;1.58;;;;;;;5.40;65.27;98445.06;4964161;28;20070;-79
2023/03/08 10:01:03;;;;;;;3.33;1.40;;;;;;;5.49;63.96;98435.88;4980310;28;20366;-78
2023/03/08 10:03:34;;;;;;;4.47;1.50;;;;;;;5.57;62.53;98438.38;4996031;28;20034;-80
2023/03/08 10:06:05;;;;;;;4.25;2.22;;;;;;;5.88;59.30;98445.00;4996575;28;20045;-77
2023/03/08 10:08:51;;;;;;;2.60;1.10;;;;;;;5.88;61.63;98431.69;4997115;28;20042;-77
2023/03/08 10:11:28;;;;;;;1.05;0.95;;;;;;;6.16;60.15;98443.00;4963505;28;20100;-79
2023/03/08 10:13:56;;;;;;;1.45;0.95;;;;;;;6.34;59.35;98433.59;4980164;28;20101;-79
2023/03/08 10:16:34;;;;;;;8.52;1.73;;;;;;;6.59;57.96;98426.59;4979796;28;20436;-79
2023/03/08 10:19:04;;;;;;;3.35;1.17;;;;;;;6.85;56.98;98443.59;4963814;28;20045;-79
2023/03/08 10:21:32;;;;;;;1.77;1.10;;;;;;;7.10;56.78;98438.41;4979481;28;20027;-79
2023/03/08 10:24:17;;;;;;;3.50;1.60;;;;;;;7.25;56.49;98430.13;4995821;28;20389;-80
2023/03/08 10:26:43;;;;;;;2.88;1.98;;;;;;;7.46;52.48;98426.34;4979916;28;20051;-79
2023/03/08 10:29:11;;;;;;;1.52;1.10;;;;;;;7.58;54.04;98431.84;4979837;28;20098;-80
2023/03/08 10:31:38;;;;;;;2.58;1.38;;;;;;;7.71;51.20;98423.75;4979904;28;20477;-80
2023/03/08 10:34:15;;;;;;;2.05;1.55;;;;;;;7.66;53.73;98428.91;4995620;28;20049;-80
2023/03/08 10:37:06;;;;;;;3.15;2.10;;;;;;;7.66;52.93;98420.91;4963295;28;20034;-80
2023/03/08 10:39:37;;;;;;;2.38;1.33;;;;;;;7.65;51.53;98420.09;4979216;28;20076;-81
2023/03/08 10:42:15;;;;;;;3.30;1.52;;;;;;;7.82;50.36;98411.53;4977608;28;20126;-83
2023/03/08 10:44:56;;;;;;;1.80;1.45;;;;;;;7.70;51.34;98414.91;4979724;28;20077;-82
2023/03/08 10:47:32;;;;;;;3.00;1.52;;;;;;;7.84;49.31;98422.84;4963405;28;20030;-82
2023/03/08 10:50:17;;;;;;;0.93;0.80;;;;;;;7.71;50.55;98423.75;4995633;28;20034;-82
2023/03/08 10:52:45;;;;;;;2.08;1.23;;;;;;;7.63;51.82;98418.66;4979432;28;20042;-82
2023/03/08 10:55:20;;;;;;;2.05;1.30;;;;;;;7.66;50.63;98412.88;4963834;28;20489;-82
2023/03/08 10:57:59;;;;;;;4.03;1.25;;;;;;;7.65;51.52;98421.94;4978638;28;20026;-82
2023/03/08 11:00:37;;;;;;;5.30;1.10;;;;;;;7.58;50.93;98407.78;4962731;28;20440;-81
2023/03/08 11:03:02;;;;;;;1.20;1.00;;;;;;;7.75;50.71;98430.28;4962812;28;20092;-80
2023/03/08 11:05:28;;;;;;;1.65;1.10;;;;;;;7.91;50.51;98403.06;4994441;28;20420;-82
2023/03/08 11:07:59;;;;;;;1.92;1.52;;;;;;;8.15;48.27;98420.16;4978192;28;20544;-82
2023/03/08 11:10:30;;;;;;;2.60;1.70;;;;;;;8.04;48.72;98412.00;4962750;28;20034;-82
2023/03/08 11:13:18;;;;;;;2.08;1.40;;;;;;;8.11;50.68;98415.47;4963701;28;20513;-82
2023/03/08 11:15:50;;;;;;;5.45;1.80;;;;;;;8.57;48.54;98415.13;4994812;28;20023;-83
2023/03/08 11:18:28;;;;;;;2.85;1.70;;;;;;;8.74;47.58;98407.31;4978651;28;20046;-82
2023/03/08 11:20:57;;;;;;;2.47;1.15;;;;;;;8.75;47.70;98382.16;4962837;28;20496;-84
2023/03/08 11:23:34;;;;;;;2.88;1.42;;;;;;;9.06;45.26;98383.06;4961953;28;20389;-81
2023/03/08 11:26:21;;;;;;;3.13;1.50;;;;;;;9.22;45.36;98393.19;4994949;28;20096;-81
2023/03/08 11:29:13;;;;;;;1.85;1.60;;;;;;;9.32;46.24;98392.66;4963651;28;20173;-81
2023/03/08 11:32:14;;;;;;;1.33;1.05;;;;;;;9.69;45.92;98385.34;4979046;28;20038;-81
2023/03/08 11:35:03;;;;;;;2.60;1.70;;;;;;;9.71;43.07;98369.00;4967657;28;20085;-83
2023/03/08 11:37:50;;;;;;;2.25;1.20;;;;;;;9.54;44.77;98378.75;4987119;28;20045;-80
2023/03/08 11:40:40;;;;;;;3.53;1.38;;;;;;;9.48;43.15;98367.06;4978258;28;20062;-84
2023/03/08 11:43:35;;;;;;;1.55;1.20;;;;;;;9.25;43.82;98365.91;4994002;28;20058;-84
2023/03/08 11:46:21;;;;;;;2.35;1.42;;;;;;;9.20;41.56;98373.81;4992547;28;20134;-83
2023/03/08 11:49:28;;;;;;;2.58;1.50;;;;;;;9.11;42.92;98369.81;4965038;28;20050;-81
2023/03/08 11:52:10;;;;;;;1.15;1.05;;;;;;;9.29;43.01;98349.38;4981300;28;20132;-82